Harrison, Michigan
Current Conditions -  °F | °C
As of 4:53 PM on Monday 26 Jan 2015 (Local Time) from KHTL Reporting Station
Clear Clear  
Wind Chill: 11°   Ceiling: Unl
Heat Index: 21°   Visibility: 10mi
Dew Point:   Wind: 9mph
Humidity: 55%   Direction: 110°ESE
Pressure: 29.89"   Gusts: NA
Location:  44.02°N, 84.8°W
Report Text: KHTL 262153Z AUTO 11008KT 10SM CLR M06/M14 A2989 RMK AO2 SLP149 T10611139
Loading
Personal Weather Stations






























Interactive Weather Map New forecast layout! Learn more

10-Day Weather Forecast

Advertisements
Track Severe Weather on mobile